createdAt,value
2018-08-12T00:00:53.656Z,2.87
2018-08-12T00:03:22.119Z,2.40
2018-08-12T00:05:50.587Z,2.77
2018-08-12T00:08:19.063Z,2.90
2018-08-12T00:10:47.482Z,2.50
2018-08-12T00:13:16.566Z,2.40
2018-08-12T00:15:45.006Z,2.47
2018-08-12T00:18:13.451Z,2.07
2018-08-12T00:20:41.919Z,2.17
2018-08-12T00:23:10.370Z,2.80
2018-08-12T00:25:38.811Z,1.80
2018-08-12T00:28:07.283Z,2.73
2018-08-12T00:30:35.812Z,2.40
2018-08-12T00:33:04.577Z,2.30
2018-08-12T00:35:32.982Z,3.17
2018-08-12T00:38:01.398Z,2.70
2018-08-12T00:40:29.854Z,2.70
2018-08-12T00:42:58.299Z,2.60
2018-08-12T00:45:26.722Z,2.50
2018-08-12T00:47:55.262Z,2.43
2018-08-12T00:50:23.723Z,2.70
2018-08-12T00:52:52.211Z,2.97
2018-08-12T00:55:20.672Z,2.93
2018-08-12T00:57:49.323Z,2.90
2018-08-12T01:00:20.910Z,2.47
2018-08-12T01:02:49.356Z,2.60
2018-08-12T01:05:18.670Z,2.57
2018-08-12T01:07:48.358Z,2.60
2018-08-12T01:10:17.480Z,2.57
2018-08-12T01:12:46.012Z,2.80
2018-08-12T01:15:16.827Z,2.63
2018-08-12T01:17:45.670Z,2.10
2018-08-12T01:20:20.771Z,2.63
2018-08-12T01:22:49.240Z,2.60
2018-08-12T01:25:17.730Z,2.70
2018-08-12T01:27:46.194Z,2.40
2018-08-12T01:30:16.873Z,2.80
2018-08-12T01:32:45.826Z,2.50
2018-08-12T01:35:14.871Z,3.03
2018-08-12T01:37:44.266Z,2.80
2018-08-12T01:40:14.275Z,2.30
2018-08-12T01:42:43.379Z,3.07
2018-08-12T01:45:13.879Z,3.60
2018-08-12T01:47:42.344Z,2.83
2018-08-12T01:50:12.487Z,3.50
2018-08-12T01:52:41.065Z,2.63
2018-08-12T01:55:09.483Z,3.10
2018-08-12T01:57:37.966Z,2.80
2018-08-12T02:00:08.582Z,2.70
2018-08-12T02:02:37.357Z,2.77
2018-08-12T02:05:06.728Z,2.80
2018-08-12T02:07:35.218Z,2.70
2018-08-12T02:10:04.200Z,2.80
2018-08-12T02:12:32.664Z,2.53
2018-08-12T02:15:01.084Z,2.57
2018-08-12T02:17:29.502Z,2.50
2018-08-12T02:19:58.555Z,3.00
2018-08-12T02:22:26.983Z,2.83
2018-08-12T02:24:55.411Z,2.80
2018-08-12T02:27:24.075Z,2.70
2018-08-12T02:29:52.505Z,3.10
2018-08-12T02:32:20.920Z,2.80
2018-08-12T02:34:49.355Z,2.50
2018-08-12T02:37:17.767Z,2.67
2018-08-12T02:39:45.887Z,2.30
2018-08-12T02:42:14.310Z,2.63
2018-08-12T02:44:42.838Z,2.80
2018-08-12T02:47:11.279Z,2.87
2018-08-12T02:49:39.706Z,2.77
2018-08-12T02:52:09.068Z,2.70
2018-08-12T02:54:37.627Z,3.00
2018-08-12T02:57:06.109Z,2.73
2018-08-12T02:59:34.550Z,2.77
2018-08-12T03:02:02.982Z,2.60
2018-08-12T03:04:31.471Z,3.10
2018-08-12T03:06:59.891Z,3.00
2018-08-12T03:09:28.323Z,2.70
2018-08-12T03:11:56.843Z,2.30
2018-08-12T03:14:25.300Z,2.00
2018-08-12T03:16:53.728Z,2.77
2018-08-12T03:19:22.171Z,2.57
2018-08-12T03:21:50.578Z,2.40
2018-08-12T03:24:19.001Z,2.63
2018-08-12T03:26:47.435Z,2.77
2018-08-12T03:29:15.838Z,2.70
2018-08-12T03:31:44.339Z,2.67
2018-08-12T03:34:12.827Z,2.47
2018-08-12T03:36:41.274Z,2.57
2018-08-12T03:39:11.215Z,2.30
2018-08-12T03:41:39.926Z,2.70
2018-08-12T03:44:08.691Z,2.47
2018-08-12T03:46:37.619Z,2.90
2018-08-12T03:49:06.459Z,2.50
2018-08-12T03:51:34.991Z,2.83
2018-08-12T03:54:03.738Z,3.20
2018-08-12T03:56:32.135Z,2.43
2018-08-12T03:59:00.564Z,2.83
2018-08-12T04:01:28.987Z,2.90
2018-08-12T04:03:57.458Z,3.57
2018-08-12T04:06:25.867Z,3.20
2018-08-12T04:08:54.340Z,3.07
2018-08-12T04:11:22.761Z,2.90
2018-08-12T04:13:51.199Z,3.10
2018-08-12T04:16:19.615Z,3.40
2018-08-12T04:18:48.058Z,3.30
2018-08-12T04:21:16.467Z,3.20
2018-08-12T04:23:44.907Z,2.83
2018-08-12T04:26:13.307Z,3.00
2018-08-12T04:28:41.834Z,2.90
2018-08-12T04:31:10.259Z,2.57
2018-08-12T04:33:38.667Z,2.60
2018-08-12T04:36:07.303Z,2.40
2018-08-12T04:38:35.759Z,2.90
2018-08-12T04:41:04.211Z,2.83
2018-08-12T04:43:33.276Z,2.97
2018-08-12T04:46:01.964Z,2.73
2018-08-12T04:48:30.402Z,2.60
2018-08-12T04:50:58.837Z,3.10
2018-08-12T04:53:27.260Z,2.70
2018-08-12T04:55:55.951Z,3.50
2018-08-12T04:58:24.610Z,3.23
2018-08-12T05:00:53.083Z,2.77
2018-08-12T05:03:21.503Z,3.50
2018-08-12T05:05:50.103Z,2.93
2018-08-12T05:08:18.510Z,3.50
2018-08-12T05:10:47.029Z,3.13
2018-08-12T05:13:15.446Z,3.53
2018-08-12T05:15:43.899Z,3.07
2018-08-12T05:18:13.379Z,3.47
2018-08-12T05:20:41.799Z,3.47
2018-08-12T05:23:10.302Z,3.10
2018-08-12T05:25:38.769Z,3.40
2018-08-12T05:28:07.264Z,3.40
2018-08-12T05:30:35.725Z,3.80
2018-08-12T05:33:04.463Z,3.40
2018-08-12T05:35:32.875Z,3.80
2018-08-12T05:38:01.425Z,2.80
2018-08-12T05:40:29.846Z,2.93
2018-08-12T05:42:58.291Z,3.20
2018-08-12T05:45:26.712Z,3.50
2018-08-12T05:47:55.148Z,2.97
2018-08-12T05:50:23.693Z,3.50
2018-08-12T05:52:52.220Z,3.53
2018-08-12T05:55:20.647Z,3.23
2018-08-12T05:57:49.159Z,4.30
2018-08-12T06:00:17.656Z,3.03
2018-08-12T06:02:46.498Z,3.50
2018-08-12T06:05:14.907Z,3.03
2018-08-12T06:07:43.559Z,3.37
2018-08-12T06:10:13.115Z,3.17
2018-08-12T06:12:41.651Z,2.97
2018-08-12T06:15:11.199Z,3.50
2018-08-12T06:17:39.636Z,3.83
2018-08-12T06:20:10.634Z,3.40
2018-08-12T06:22:39.077Z,3.60
2018-08-12T06:25:08.520Z,3.27
2018-08-12T06:27:37.001Z,3.10
2018-08-12T06:30:08.643Z,3.10
2018-08-12T06:32:37.158Z,3.57
2018-08-12T06:35:06.091Z,3.60
2018-08-12T06:37:34.499Z,3.97
2018-08-12T06:40:03.260Z,3.87
2018-08-12T06:42:31.703Z,3.57
2018-08-12T06:45:00.383Z,4.20
2018-08-12T06:47:28.806Z,3.87
2018-08-12T06:49:59.745Z,3.50
2018-08-12T06:52:28.891Z,3.83
2018-08-12T06:54:58.023Z,3.50
2018-08-12T06:57:26.695Z,3.70
2018-08-12T06:59:55.177Z,4.10
2018-08-12T07:02:24.621Z,3.00
2018-08-12T07:04:53.108Z,2.97
2018-08-12T07:07:21.827Z,3.27
2018-08-12T07:09:50.412Z,3.03
2018-08-12T07:12:19.209Z,3.20
2018-08-12T07:14:48.242Z,3.07
2018-08-12T07:17:16.747Z,3.10
2018-08-12T07:19:47.033Z,2.63
2018-08-12T07:22:15.611Z,3.20
2018-08-12T07:24:45.309Z,3.00
2018-08-12T07:27:13.783Z,2.73
2018-08-12T07:29:42.655Z,2.90
2018-08-12T07:32:11.112Z,2.83
2018-08-12T07:34:39.641Z,2.97
2018-08-12T07:37:08.387Z,2.73
2018-08-12T07:39:36.844Z,2.83
2018-08-12T07:42:05.294Z,2.83
2018-08-12T07:44:33.735Z,2.20
2018-08-12T07:47:02.296Z,2.30
2018-08-12T07:49:31.572Z,2.97
2018-08-12T07:52:00.267Z,2.10
2018-08-12T07:54:28.708Z,2.00
2018-08-12T07:56:57.312Z,2.10
2018-08-12T07:59:25.827Z,2.23
2018-08-12T08:01:54.317Z,2.23
2018-08-12T08:04:22.802Z,1.93
2018-08-12T08:06:51.307Z,1.70
2018-08-12T08:09:19.743Z,2.07
2018-08-12T08:11:48.220Z,2.00
2018-08-12T08:14:16.654Z,2.30
2018-08-12T08:16:45.124Z,2.50
2018-08-12T08:19:13.582Z,2.10
2018-08-12T08:21:45.055Z,1.70
2018-08-12T08:24:13.503Z,1.90
2018-08-12T08:26:41.949Z,1.97
2018-08-12T08:29:10.475Z,1.97
2018-08-12T08:31:39.107Z,2.10
2018-08-12T08:34:07.458Z,1.77
2018-08-12T08:36:36.015Z,2.20
2018-08-12T08:39:08.836Z,1.93
2018-08-12T08:41:37.269Z,1.60
2018-08-12T08:44:05.848Z,2.07
2018-08-12T08:46:34.230Z,1.90
2018-08-12T08:49:02.759Z,1.90
2018-08-12T08:51:31.218Z,1.90
2018-08-12T08:54:00.330Z,1.63
2018-08-12T08:56:28.823Z,2.23
2018-08-12T08:58:57.328Z,1.67
2018-08-12T09:01:25.872Z,1.50
2018-08-12T09:03:54.659Z,1.50
2018-08-12T09:06:23.615Z,1.67
2018-08-12T09:08:52.286Z,1.90
2018-08-12T09:11:20.533Z,1.63
2018-08-12T09:13:49.020Z,1.70
2018-08-12T09:16:17.465Z,1.67
2018-08-12T09:18:45.991Z,1.70
2018-08-12T09:21:14.820Z,1.40
2018-08-12T09:23:43.231Z,1.30
2018-08-12T09:26:11.685Z,1.60
2018-08-12T09:28:40.299Z,1.30
2018-08-12T09:31:08.728Z,2.37
2018-08-12T09:33:37.299Z,1.57
2018-08-12T09:36:06.777Z,1.60
2018-08-12T09:38:35.395Z,1.30
2018-08-12T09:41:03.856Z,2.00
2018-08-12T09:43:32.319Z,1.57
2018-08-12T09:46:00.780Z,1.23
2018-08-12T09:48:29.222Z,1.40
2018-08-12T09:50:57.661Z,1.30
2018-08-12T09:53:26.215Z,1.57
2018-08-12T09:55:54.822Z,1.60
2018-08-12T09:58:23.481Z,1.60
2018-08-12T10:00:51.988Z,1.47
2018-08-12T10:03:20.449Z,1.10
2018-08-12T10:05:48.939Z,1.20
2018-08-12T10:08:17.443Z,1.10
2018-08-12T10:10:45.975Z,1.20
2018-08-12T10:13:14.560Z,1.13
2018-08-12T10:15:43.069Z,1.00
2018-08-12T10:18:11.596Z,1.00
2018-08-12T10:20:40.136Z,1.27
2018-08-12T10:23:08.721Z,1.30
2018-08-12T10:25:37.150Z,1.00
2018-08-12T10:28:05.648Z,0.80
2018-08-12T10:30:34.191Z,0.93
2018-08-12T10:33:02.672Z,1.00
2018-08-12T10:35:31.102Z,1.10
2018-08-12T10:37:59.655Z,1.00
2018-08-12T10:40:28.299Z,1.17
2018-08-12T10:42:56.831Z,1.00
2018-08-12T10:45:25.312Z,0.90
2018-08-12T10:47:53.763Z,1.30
2018-08-12T10:50:22.346Z,0.93
2018-08-12T10:52:51.140Z,0.97
2018-08-12T10:55:22.356Z,1.10
2018-08-12T10:57:51.128Z,0.93
2018-08-12T11:00:24.352Z,0.80
2018-08-12T11:02:53.204Z,0.80
2018-08-12T11:05:21.685Z,1.00
2018-08-12T11:07:53.632Z,1.23
2018-08-12T11:10:22.338Z,1.30
2018-08-12T11:12:50.838Z,1.07
2018-08-12T11:15:19.236Z,1.37
2018-08-12T11:17:47.670Z,1.00
2018-08-12T11:20:16.133Z,0.97
2018-08-12T11:22:44.696Z,1.00
2018-08-12T11:25:13.694Z,1.60
2018-08-12T11:27:42.272Z,1.33
2018-08-12T11:30:14.303Z,0.80
2018-08-12T11:32:42.775Z,0.87
2018-08-12T11:35:13.223Z,1.40
2018-08-12T11:37:42.409Z,1.33
2018-08-12T11:40:12.094Z,1.10
2018-08-12T11:42:40.572Z,1.10
2018-08-12T11:45:11.808Z,1.30
2018-08-12T11:47:40.756Z,1.40
2018-08-12T11:50:10.428Z,1.20
2018-08-12T11:52:39.626Z,1.20
2018-08-12T11:55:09.885Z,1.60
2018-08-12T11:57:38.660Z,1.10
2018-08-12T12:00:15.747Z,1.10
2018-08-12T12:02:45.353Z,1.40
2018-08-12T12:05:14.337Z,1.20
2018-08-12T12:07:43.198Z,1.40
2018-08-12T12:10:14.377Z,1.53
2018-08-12T12:12:43.847Z,1.50
2018-08-12T12:15:13.179Z,1.10
2018-08-12T12:17:41.683Z,1.10
2018-08-12T12:20:11.542Z,1.40
2018-08-12T12:22:40.851Z,1.70
2018-08-12T12:25:11.475Z,1.40
2018-08-12T12:27:40.097Z,1.10
2018-08-12T12:30:16.956Z,1.30
2018-08-12T12:32:46.115Z,1.30
2018-08-12T12:35:14.699Z,1.10
2018-08-12T12:37:43.484Z,1.37
2018-08-12T12:40:13.979Z,1.20
2018-08-12T12:42:42.697Z,1.00
2018-08-12T12:45:12.414Z,1.07
2018-08-12T12:47:41.256Z,1.23
2018-08-12T12:50:15.704Z,0.87
2018-08-12T12:52:44.444Z,1.40
2018-08-12T12:55:12.857Z,1.00
2018-08-12T12:57:41.486Z,1.57
2018-08-12T13:00:11.991Z,1.30
2018-08-12T13:02:40.797Z,1.20
2018-08-12T13:05:11.584Z,1.07
2018-08-12T13:07:40.130Z,1.23
2018-08-12T13:10:09.815Z,1.00
2018-08-12T13:12:39.169Z,1.30
2018-08-12T13:15:08.800Z,1.00
2018-08-12T13:17:37.592Z,1.00
2018-08-12T13:20:07.767Z,1.07
2018-08-12T13:22:36.218Z,1.00
2018-08-12T13:25:07.324Z,0.90
2018-08-12T13:27:35.806Z,1.17
2018-08-12T13:30:05.350Z,1.30
2018-08-12T13:32:33.787Z,1.20
2018-08-12T13:35:02.565Z,1.13
2018-08-12T13:37:31.011Z,1.30
2018-08-12T13:39:59.596Z,1.10
2018-08-12T13:42:28.107Z,1.10
2018-08-12T13:44:56.605Z,1.50
2018-08-12T13:47:25.059Z,1.30
2018-08-12T13:49:53.531Z,1.20
2018-08-12T13:52:22.132Z,1.30
2018-08-12T13:54:50.558Z,1.03
2018-08-12T13:57:19.435Z,1.00
2018-08-12T13:59:48.120Z,1.17
2018-08-12T14:02:16.664Z,1.20
2018-08-12T14:04:45.100Z,1.07
2018-08-12T14:07:13.692Z,1.20
2018-08-12T14:09:42.180Z,2.00
2018-08-12T14:12:10.901Z,1.00
2018-08-12T14:14:39.370Z,1.37
2018-08-12T14:17:07.979Z,0.90
2018-08-12T14:19:36.407Z,0.97
2018-08-12T14:22:04.850Z,1.07
2018-08-12T14:24:33.279Z,1.00
2018-08-12T14:27:01.781Z,1.20
2018-08-12T14:29:30.219Z,1.10
2018-08-12T14:31:58.661Z,1.13
2018-08-12T14:34:27.115Z,1.10
2018-08-12T14:36:55.679Z,0.97
2018-08-12T14:39:24.219Z,1.30
2018-08-12T14:41:52.741Z,1.10
2018-08-12T14:44:21.187Z,1.30
2018-08-12T14:46:49.675Z,1.33
2018-08-12T14:49:18.168Z,1.73
2018-08-12T14:51:46.587Z,1.10
2018-08-12T14:54:15.143Z,1.40
2018-08-12T14:56:43.579Z,1.40
2018-08-12T14:59:12.057Z,1.23
2018-08-12T15:01:40.489Z,1.20
2018-08-12T15:04:08.959Z,1.17
2018-08-12T15:06:37.661Z,0.97
2018-08-12T15:09:09.024Z,1.30
2018-08-12T15:11:37.504Z,1.43
2018-08-12T15:14:05.994Z,1.20
2018-08-12T15:16:34.459Z,1.30
2018-08-12T15:19:03.254Z,0.90
2018-08-12T15:21:32.267Z,1.40
2018-08-12T15:24:00.814Z,1.10
2018-08-12T15:26:29.519Z,1.33
2018-08-12T15:28:57.977Z,1.33
2018-08-12T15:31:26.642Z,1.43
2018-08-12T15:33:55.090Z,1.40
2018-08-12T15:36:23.650Z,1.30
2018-08-12T15:38:52.402Z,1.70
2018-08-12T15:41:20.959Z,1.13
2018-08-12T15:43:49.412Z,1.10
2018-08-12T15:46:17.904Z,1.37
2018-08-12T15:48:46.331Z,1.10
2018-08-12T15:51:14.946Z,1.53
2018-08-12T15:53:43.279Z,1.70
2018-08-12T15:56:12.013Z,1.47
2018-08-12T15:58:40.442Z,1.37
2018-08-12T16:01:08.926Z,1.30
2018-08-12T16:03:37.438Z,1.20
2018-08-12T16:06:05.878Z,1.30
2018-08-12T16:08:34.326Z,1.30
2018-08-12T16:11:02.790Z,1.20
2018-08-12T16:13:31.258Z,1.23
2018-08-12T16:15:59.808Z,1.63
2018-08-12T16:18:28.271Z,1.40
2018-08-12T16:20:56.740Z,1.37
2018-08-12T16:23:25.208Z,4.67
2018-08-12T16:25:53.688Z,1.60
2018-08-12T16:28:22.300Z,1.50
2018-08-12T16:30:50.790Z,1.40
2018-08-12T16:33:19.398Z,1.40
2018-08-12T16:35:47.859Z,1.40
2018-08-12T16:38:16.371Z,1.77
2018-08-12T16:40:44.807Z,1.60
2018-08-12T16:43:13.472Z,1.70
2018-08-12T16:45:41.982Z,1.20
2018-08-12T16:48:10.544Z,1.53
2018-08-12T16:50:39.115Z,1.27
2018-08-12T16:53:07.627Z,1.40
2018-08-12T16:55:36.097Z,2.03
2018-08-12T16:58:05.005Z,1.23
2018-08-12T17:00:33.532Z,1.37
2018-08-12T17:03:02.036Z,1.33
2018-08-12T17:05:30.699Z,1.27
2018-08-12T17:07:59.214Z,1.23
2018-08-12T17:10:27.900Z,1.43
2018-08-12T17:12:56.447Z,1.90
2018-08-12T17:15:25.035Z,1.70
2018-08-12T17:17:53.590Z,1.70
2018-08-12T17:20:22.779Z,1.43
2018-08-12T17:22:51.277Z,1.17
2018-08-12T17:25:19.727Z,1.73
2018-08-12T17:27:48.185Z,1.47
2018-08-12T17:30:17.491Z,1.30
2018-08-12T17:32:46.037Z,1.63
2018-08-12T17:35:14.462Z,1.47
2018-08-12T17:37:44.146Z,1.40
2018-08-12T17:40:13.787Z,1.53
2018-08-12T17:42:42.537Z,1.60
2018-08-12T17:45:13.090Z,1.40
2018-08-12T17:47:42.077Z,2.47
2018-08-12T17:50:12.439Z,1.60
2018-08-12T17:52:41.379Z,1.50
2018-08-12T17:55:10.039Z,1.40
2018-08-12T17:57:38.517Z,1.53
2018-08-12T18:00:09.101Z,1.43
2018-08-12T18:02:37.875Z,1.43
2018-08-12T18:05:06.652Z,1.53
2018-08-12T18:07:35.140Z,1.40
2018-08-12T18:10:03.713Z,1.63
2018-08-12T18:12:32.267Z,1.23
2018-08-12T18:15:00.759Z,1.17
2018-08-12T18:17:29.221Z,1.40
2018-08-12T18:19:57.780Z,1.50
2018-08-12T18:22:26.504Z,1.47
2018-08-12T18:24:55.004Z,1.50
2018-08-12T18:27:23.500Z,1.63
2018-08-12T18:29:52.060Z,1.27
2018-08-12T18:32:20.565Z,1.40
2018-08-12T18:34:49.002Z,1.47
2018-08-12T18:37:17.485Z,1.50
2018-08-12T18:39:46.051Z,4.10
2018-08-12T18:42:14.621Z,1.67
2018-08-12T18:44:43.080Z,2.30
2018-08-12T18:47:11.571Z,1.70
2018-08-12T18:49:40.046Z,2.03
2018-08-12T18:52:08.552Z,1.67
2018-08-12T18:54:37.016Z,1.87
2018-08-12T18:57:05.442Z,1.80
2018-08-12T18:59:33.920Z,1.63
2018-08-12T19:02:02.355Z,1.73
2018-08-12T19:04:30.938Z,1.57
2018-08-12T19:06:59.535Z,1.77
2018-08-12T19:09:28.032Z,2.00
2018-08-12T19:11:56.511Z,4.93
2018-08-12T19:14:24.951Z,2.50
2018-08-12T19:16:53.480Z,1.80
2018-08-12T19:19:22.094Z,1.90
2018-08-12T19:21:50.519Z,1.80
2018-08-12T19:24:19.108Z,1.80
2018-08-12T19:26:47.656Z,1.87
2018-08-12T19:29:16.108Z,1.80
2018-08-12T19:31:44.631Z,1.73
2018-08-12T19:34:13.104Z,2.43
2018-08-12T19:36:41.655Z,2.40
2018-08-12T19:39:11.384Z,1.77
2018-08-12T19:41:40.080Z,3.13
2018-08-12T19:44:08.903Z,1.93
2018-08-12T19:46:37.897Z,1.70
2018-08-12T19:49:06.454Z,2.40
2018-08-12T19:51:35.084Z,1.73
2018-08-12T19:54:03.553Z,2.13
2018-08-12T19:56:32.119Z,2.07
2018-08-12T19:59:00.588Z,2.33
2018-08-12T20:01:29.221Z,1.97
2018-08-12T20:03:57.828Z,2.17
2018-08-12T20:06:26.407Z,2.20
2018-08-12T20:08:54.912Z,2.40
2018-08-12T20:11:23.403Z,2.50
2018-08-12T20:13:51.860Z,2.10
2018-08-12T20:16:20.458Z,2.80
2018-08-12T20:18:49.146Z,2.13
2018-08-12T20:21:17.580Z,2.27
2018-08-12T20:23:46.040Z,2.80
2018-08-12T20:26:14.487Z,2.30
2018-08-12T20:28:43.160Z,2.70
2018-08-12T20:31:11.789Z,2.00
2018-08-12T20:33:40.260Z,2.20
2018-08-12T20:36:08.724Z,2.03
2018-08-12T20:38:37.186Z,2.00
2018-08-12T20:41:05.871Z,2.77
2018-08-12T20:43:34.490Z,2.57
2018-08-12T20:46:03.015Z,2.27
2018-08-12T20:48:31.491Z,2.60
2018-08-12T20:50:59.988Z,1.90
2018-08-12T20:53:28.475Z,2.20
2018-08-12T20:55:57.168Z,2.43
2018-08-12T20:58:25.703Z,2.57
2018-08-12T21:00:54.176Z,1.90
2018-08-12T21:03:22.781Z,2.20
2018-08-12T21:05:51.268Z,2.20
2018-08-12T21:08:19.768Z,2.40
2018-08-12T21:10:48.220Z,2.37
2018-08-12T21:13:16.783Z,2.20
2018-08-12T21:15:45.391Z,2.37
2018-08-12T21:18:14.799Z,2.30
2018-08-12T21:20:43.945Z,2.50
2018-08-12T21:23:14.177Z,2.03
2018-08-12T21:25:43.263Z,2.30
2018-08-12T21:28:12.540Z,1.90
2018-08-12T21:30:41.848Z,1.90
2018-08-12T21:33:10.388Z,1.80
2018-08-12T21:35:39.323Z,1.90
2018-08-12T21:38:07.875Z,2.13
2018-08-12T21:40:36.466Z,2.27
2018-08-12T21:43:05.242Z,2.60
2018-08-12T21:45:33.700Z,2.03
2018-08-12T21:48:02.316Z,1.83
2018-08-12T21:50:31.135Z,1.87
2018-08-12T21:52:59.643Z,2.23
2018-08-12T21:55:28.418Z,2.43
2018-08-12T21:57:56.909Z,2.10
2018-08-12T22:00:25.385Z,1.90
2018-08-12T22:02:53.869Z,2.30
2018-08-12T22:05:22.424Z,2.40
2018-08-12T22:07:50.932Z,2.20
2018-08-12T22:10:19.459Z,2.07
2018-08-12T22:12:48.020Z,1.90
2018-08-12T22:15:16.455Z,2.00
2018-08-12T22:17:44.955Z,2.77
2018-08-12T22:20:13.467Z,2.27
2018-08-12T22:22:41.971Z,2.40
2018-08-12T22:25:10.490Z,2.30
2018-08-12T22:27:39.077Z,3.10
2018-08-12T22:30:11.061Z,2.40
2018-08-12T22:32:39.502Z,2.43
2018-08-12T22:35:07.922Z,2.47
2018-08-12T22:37:36.359Z,2.60
2018-08-12T22:40:05.915Z,2.10
2018-08-12T22:42:34.453Z,2.93
2018-08-12T22:45:03.003Z,3.20
2018-08-12T22:47:31.633Z,2.43
2018-08-12T22:50:00.275Z,2.30
2018-08-12T22:52:28.792Z,2.90
2018-08-12T22:54:57.312Z,1.80
2018-08-12T22:57:25.738Z,2.50
2018-08-12T22:59:55.171Z,4.40
2018-08-12T23:02:23.692Z,2.40
2018-08-12T23:04:52.415Z,2.60
2018-08-12T23:07:20.879Z,2.50
2018-08-12T23:09:49.404Z,2.87
2018-08-12T23:12:17.811Z,2.53
2018-08-12T23:14:46.247Z,2.60
2018-08-12T23:17:14.691Z,2.80
2018-08-12T23:19:43.162Z,1.90
2018-08-12T23:22:11.620Z,2.33
2018-08-12T23:24:40.087Z,2.70
2018-08-12T23:27:08.875Z,2.73
2018-08-12T23:29:37.322Z,2.50
2018-08-12T23:32:05.806Z,2.97
2018-08-12T23:34:34.323Z,2.40
2018-08-12T23:37:02.760Z,2.80
2018-08-12T23:39:31.208Z,2.63
2018-08-12T23:41:59.618Z,2.77
2018-08-12T23:44:28.051Z,2.70
2018-08-12T23:46:56.506Z,2.40
2018-08-12T23:49:24.955Z,2.87
2018-08-12T23:51:53.382Z,2.70
2018-08-12T23:54:21.815Z,3.23
2018-08-12T23:56:50.235Z,2.87
2018-08-12T23:59:18.643Z,2.97
